Time;durP1;ratioP1;P1;durP2;ratioP2;P2;SDS_P1;SDS_P2;PMS_P1;PMS_P2;Temp;Humidity;BMP_temperature;BMP_pressure;BME280_temperature;BME280_humidity;BME280_pressure;Samples;Min_cycle;Max_cycle;Signal;HPM_P1;HPM_P2
2022/12/17 13:06:38;;;;;;;19.75;13.07;;;;;;;;;;4989628;28;20042;-53
2022/12/17 13:09:19;;;;;;;18.77;13.65;;;;;;;;;;4990891;28;20038;-52
2022/12/17 13:12:02;;;;;;;22.00;13.65;;;;;;;;;;4990780;28;20051;-54
2022/12/17 13:14:35;;;;;;;20.92;14.48;;;;;;;;;;4990864;28;20410;-54
2022/12/17 13:17:07;;;;;;;20.15;13.85;;;;;;;;;;4990808;28;20057;-53
2022/12/17 13:19:38;;;;;;;18.63;12.50;;;;;;;;;;4990662;28;20385;-55
2022/12/17 13:22:09;;;;;;;17.35;12.80;;;;;;;;;;4990674;28;20053;-55
2022/12/17 13:24:37;;;;;;;18.73;12.18;;;;;;;;;;4990636;28;20083;-54
2022/12/17 13:27:05;;;;;;;20.20;12.88;;;;;;;;;;4990511;28;20438;-54
2022/12/17 13:29:34;;;;;;;19.55;12.07;;;;;;;;;;4990451;28;20511;-55
2022/12/17 13:32:06;;;;;;;20.55;12.38;;;;;;;;;;4990497;28;20071;-53
2022/12/17 13:34:52;;;;;;;17.27;12.35;;;;;;;;;;4990651;28;20487;-54
2022/12/17 13:37:35;;;;;;;18.30;12.52;;;;;;;;;;4990405;28;20047;-55
2022/12/17 13:40:21;;;;;;;15.07;11.27;;;;;;;;;;4990484;28;20053;-55
2022/12/17 13:42:49;;;;;;;18.13;11.15;;;;;;;;;;4990705;28;20073;-54
2022/12/17 13:45:18;;;;;;;17.83;12.15;;;;;;;;;;4990430;28;20096;-53
2022/12/17 13:47:52;;;;;;;17.92;11.52;;;;;;;;;;4990778;28;20476;-53
2022/12/17 13:50:21;;;;;;;15.90;11.27;;;;;;;;;;4990404;28;20129;-54
2022/12/17 13:53:11;;;;;;;20.52;12.38;;;;;;;;;;4990251;28;20042;-55
2022/12/17 13:55:39;;;;;;;;;;;;;;;;;;4989961;28;20038;-55
2022/12/17 13:58:19;;;;;;;18.00;12.13;;;;;;;;;;4990295;28;19922;-54
2022/12/17 14:00:47;;;;;;;18.40;12.18;;;;;;;;;;4990691;28;20042;-55
2022/12/17 14:03:18;;;;;;;21.13;13.40;;;;;;;;;;4991146;28;20074;-53
2022/12/17 14:06:07;;;;;;;19.17;12.63;;;;;;;;;;4993708;28;20045;-55
2022/12/17 14:08:34;;;;;;;20.75;12.98;;;;;;;;;;4992467;28;20078;-54
2022/12/17 14:13:49;;;;;;;18.92;12.70;;;;;;;;;;4993728;28;20038;-54
2022/12/17 14:16:17;;;;;;;20.52;14.40;;;;;;;;;;4993675;28;20088;-55
2022/12/17 14:18:48;;;;;;;20.52;13.80;;;;;;;;;;4993907;28;20047;-53
2022/12/17 14:21:16;;;;;;;19.70;13.85;;;;;;;;;;4993606;28;20050;-55
2022/12/17 14:23:44;;;;;;;20.58;13.75;;;;;;;;;;4993819;28;20062;-55
2022/12/17 14:26:12;;;;;;;23.63;15.25;;;;;;;;;;4993233;28;20426;-52
2022/12/17 14:28:47;;;;;;;24.77;15.52;;;;;;;;;;4993467;28;20484;-53
2022/12/17 14:31:24;;;;;;;24.40;15.73;;;;;;;;;;4993363;28;20091;-52
2022/12/17 14:34:06;;;;;;;23.52;15.93;;;;;;;;;;4993385;28;20035;-51
2022/12/17 14:36:35;;;;;;;26.38;16.38;;;;;;;;;;4993257;28;20065;-49
2022/12/17 14:39:19;;;;;;;25.58;16.45;;;;;;;;;;4993154;28;20103;-53
2022/12/17 14:44:33;;;;;;;31.23;18.88;;;;;;;;;;4992162;28;20047;-54
2022/12/17 14:47:10;;;;;;;29.55;18.63;;;;;;;;;;4993012;28;20050;-55
2022/12/17 14:49:38;;;;;;;32.13;18.88;;;;;;;;;;4993116;28;20041;-54
2022/12/17 14:52:13;;;;;;;32.38;20.10;;;;;;;;;;4993302;28;20419;-53
2022/12/17 14:54:46;;;;;;;33.75;20.80;;;;;;;;;;4991760;28;20077;-51
2022/12/17 14:57:19;;;;;;;34.95;21.13;;;;;;;;;;4992821;28;20054;-52
2022/12/17 14:59:47;;;;;;;42.15;25.95;;;;;;;;;;4992884;28;20050;-55
2022/12/17 15:02:15;;;;;;;34.72;22.05;;;;;;;;;;4992747;28;20062;-55
2022/12/17 15:04:42;;;;;;;35.33;23.23;;;;;;;;;;4992611;28;20047;-53
2022/12/17 15:07:13;;;;;;;34.38;21.13;;;;;;;;;;4992562;28;20485;-55
2022/12/17 15:09:44;;;;;;;33.60;19.93;;;;;;;;;;4992523;28;20052;-54
2022/12/17 15:12:12;;;;;;;29.42;18.88;;;;;;;;;;4992985;28;20936;-54
2022/12/17 15:14:39;;;;;;;28.42;18.20;;;;;;;;;;4990133;28;20046;-55
2022/12/17 15:17:07;;;;;;;28.83;20.75;;;;;;;;;;4992591;28;20034;-52
2022/12/17 15:19:34;;;;;;;29.08;17.38;;;;;;;;;;4992885;28;20183;-54
2022/12/17 15:22:03;;;;;;;31.98;20.00;;;;;;;;;;4992472;28;20046;-49
2022/12/17 15:24:30;;;;;;;31.88;19.25;;;;;;;;;;4992491;28;20038;-54
2022/12/17 15:26:58;;;;;;;35.22;21.35;;;;;;;;;;4992199;28;20050;-49
2022/12/17 15:29:25;;;;;;;43.50;26.77;;;;;;;;;;4992597;28;20042;-55
2022/12/17 15:31:53;;;;;;;38.63;25.05;;;;;;;;;;4992358;28;20078;-53
2022/12/17 15:34:20;;;;;;;34.80;21.58;;;;;;;;;;4992259;28;20054;-52
2022/12/17 15:36:48;;;;;;;34.30;22.05;;;;;;;;;;4992157;28;20076;-50
2022/12/17 15:39:15;;;;;;;35.72;21.25;;;;;;;;;;4991043;28;20043;-51
2022/12/17 15:44:28;;;;;;;35.47;21.52;;;;;;;;;;4992489;28;20058;-49
2022/12/17 15:46:57;;;;;;;34.58;21.55;;;;;;;;;;4990970;28;20062;-53
2022/12/17 15:49:24;;;;;;;35.92;21.92;;;;;;;;;;4992009;28;20049;-54
2022/12/17 15:51:52;;;;;;;36.15;22.15;;;;;;;;;;4992120;28;20039;-54
2022/12/17 15:54:19;;;;;;;37.67;22.63;;;;;;;;;;4991170;28;20046;-54
2022/12/17 15:56:52;;;;;;;38.90;24.05;;;;;;;;;;4991885;28;20050;-54
2022/12/17 15:59:19;;;;;;;37.47;22.42;;;;;;;;;;4991859;28;20048;-53
2022/12/17 16:01:47;;;;;;;35.03;23.02;;;;;;;;;;4990855;28;20419;-54
2022/12/17 16:04:14;;;;;;;40.30;23.92;;;;;;;;;;4991943;28;20118;-54
2022/12/17 16:06:50;;;;;;;39.28;24.42;;;;;;;;;;4991919;28;20096;-53
2022/12/17 16:09:18;;;;;;;37.67;23.98;;;;;;;;;;4991927;28;20129;-49
2022/12/17 16:11:45;;;;;;;43.13;24.02;;;;;;;;;;4990505;28;20121;-51
2022/12/17 16:14:13;;;;;;;40.00;24.83;;;;;;;;;;4990630;28;20046;-50
2022/12/17 16:16:40;;;;;;;42.45;26.77;;;;;;;;;;4991730;28;20053;-53
2022/12/17 16:19:08;;;;;;;41.42;26.13;;;;;;;;;;4991592;28;20100;-53
2022/12/17 16:21:35;;;;;;;42.88;26.55;;;;;;;;;;4990537;28;20047;-54
2022/12/17 16:24:07;;;;;;;40.28;25.00;;;;;;;;;;4991571;28;20069;-53
2022/12/17 16:26:34;;;;;;;38.42;24.33;;;;;;;;;;4990860;28;20034;-53
2022/12/17 16:29:02;;;;;;;38.95;23.50;;;;;;;;;;4991642;28;20054;-53
2022/12/17 16:31:29;;;;;;;39.13;24.75;;;;;;;;;;4991383;28;20069;-55
2022/12/17 16:33:57;;;;;;;39.92;25.58;;;;;;;;;;4990401;28;20126;-54
2022/12/17 16:36:24;;;;;;;42.60;25.67;;;;;;;;;;4991341;28;20084;-53
2022/12/17 16:38:53;;;;;;;54.78;30.02;;;;;;;;;;4991201;28;20042;-54
2022/12/17 16:41:21;;;;;;;55.35;29.73;;;;;;;;;;4991142;28;20059;-54
2022/12/17 16:43:49;;;;;;;55.20;31.05;;;;;;;;;;4987304;28;20037;-55
2022/12/17 16:46:32;;;;;;;57.75;32.17;;;;;;;;;;4993715;28;20042;-55
2022/12/17 16:49:04;;;;;;;57.13;30.75;;;;;;;;;;4990993;28;20125;-51
2022/12/17 16:51:32;;;;;;;52.97;29.90;;;;;;;;;;4989564;28;20125;-50
2022/12/17 16:54:03;;;;;;;63.42;31.88;;;;;;;;;;4986962;28;20442;-56
2022/12/17 16:56:33;;;;;;;62.60;31.88;;;;;;;;;;4990494;28;20043;-54
2022/12/17 16:59:07;;;;;;;60.40;31.73;;;;;;;;;;4989204;28;20046;-53
2022/12/17 17:01:35;;;;;;;61.42;31.75;;;;;;;;;;4991249;28;20042;-54
2022/12/17 17:04:04;;;;;;;59.05;30.65;;;;;;;;;;4990910;28;20450;-55
2022/12/17 17:06:31;;;;;;;53.33;30.05;;;;;;;;;;4990799;28;20047;-55
2022/12/17 17:09:03;;;;;;;60.35;31.73;;;;;;;;;;4991808;28;20053;-57
2022/12/17 17:11:30;;;;;;;56.42;30.50;;;;;;;;;;5092751;28;20040;-56
2022/12/17 17:13:58;;;;;;;51.90;28.88;;;;;;;;;;5081045;28;20446;-54
2022/12/17 17:16:25;;;;;;;50.85;28.63;;;;;;;;;;5013012;28;20046;-54
2022/12/17 17:18:53;;;;;;;56.25;29.67;;;;;;;;;;4991038;28;20070;-54
2022/12/17 17:21:31;;;;;;;48.47;27.30;;;;;;;;;;4990656;28;20051;-54
2022/12/17 17:24:00;;;;;;;50.90;28.45;;;;;;;;;;4989822;28;20552;-52
2022/12/17 17:26:29;;;;;;;47.08;27.25;;;;;;;;;;4988652;28;20103;-55
2022/12/17 17:28:56;;;;;;;48.83;27.42;;;;;;;;;;4990134;28;20071;-55
2022/12/17 17:31:24;;;;;;;45.08;25.00;;;;;;;;;;4987867;28;20426;-52
2022/12/17 17:34:12;;;;;;;52.30;27.98;;;;;;;;;;4986533;28;20427;-53
2022/12/17 17:36:40;;;;;;;48.50;27.33;;;;;;;;;;4990725;28;20050;-54
2022/12/17 17:39:07;;;;;;;42.45;23.83;;;;;;;;;;4977647;28;20047;-52
2022/12/17 17:41:35;;;;;;;43.35;23.63;;;;;;;;;;4975251;28;20499;-51
2022/12/17 17:44:04;;;;;;;42.38;23.85;;;;;;;;;;4974376;28;20062;-54
2022/12/17 17:46:32;;;;;;;41.13;23.05;;;;;;;;;;4988121;28;20453;-54
2022/12/17 17:49:01;;;;;;;35.53;21.83;;;;;;;;;;4978879;28;20453;-54
2022/12/17 17:51:32;;;;;;;39.83;22.33;;;;;;;;;;4989861;28;20042;-52
2022/12/17 17:54:20;;;;;;;37.55;20.65;;;;;;;;;;4996072;28;20032;-54
2022/12/17 17:56:47;;;;;;;36.47;21.08;;;;;;;;;;4984879;28;20499;-53
2022/12/17 17:59:19;;;;;;;37.63;20.23;;;;;;;;;;4975463;28;20066;-55
2022/12/17 18:01:48;;;;;;;32.55;19.05;;;;;;;;;;4981158;28;20129;-54
2022/12/17 18:04:17;;;;;;;31.92;20.08;;;;;;;;;;4985103;28;20087;-48
2022/12/17 18:06:45;;;;;;;36.20;20.13;;;;;;;;;;4984743;28;20046;-51
2022/12/17 18:09:33;;;;;;;38.55;22.38;;;;;;;;;;4978795;28;20042;-50
2022/12/17 18:13:53;;;;;;;33.75;19.90;;;;;;;;;;4983049;28;20573;-48
2022/12/17 18:14:49;;;;;;;29.10;18.27;;;;;;;;;;4979943;28;20058;-53
2022/12/17 18:17:36;;;;;;;29.67;17.15;;;;;;;;;;4979177;28;20043;-55
2022/12/17 18:20:04;;;;;;;33.30;18.25;;;;;;;;;;4982917;28;20105;-54
2022/12/17 18:22:32;;;;;;;26.90;15.88;;;;;;;;;;4972217;28;20077;-54
2022/12/17 18:24:59;;;;;;;23.67;14.82;;;;;;;;;;4971081;28;20035;-50
2022/12/17 18:27:26;;;;;;;22.05;14.30;;;;;;;;;;4980010;28;20100;-50
2022/12/17 18:29:54;;;;;;;21.67;12.82;;;;;;;;;;4988762;28;20042;-54
2022/12/17 18:32:22;;;;;;;21.33;12.55;;;;;;;;;;4989484;28;20038;-54
2022/12/17 18:34:49;;;;;;;16.92;10.68;;;;;;;;;;4989257;28;20116;-56
2022/12/17 18:37:18;;;;;;;14.27;9.35;;;;;;;;;;4989497;28;20042;-54
2022/12/17 18:39:46;;;;;;;14.10;9.45;;;;;;;;;;4988105;28;20133;-55
2022/12/17 18:44:59;;;;;;;12.80;8.05;;;;;;;;;;4989092;28;20053;-54
2022/12/17 18:47:27;;;;;;;10.82;7.80;;;;;;;;;;4977793;28;20525;-56
2022/12/17 18:49:55;;;;;;;12.10;8.68;;;;;;;;;;4988850;28;20129;-55
2022/12/17 18:52:23;;;;;;;14.13;8.63;;;;;;;;;;4992571;28;20099;-54
2022/12/17 18:54:51;;;;;;;13.38;9.10;;;;;;;;;;4992481;28;20061;-51
2022/12/17 18:57:18;;;;;;;14.65;9.23;;;;;;;;;;4992286;28;20117;-54
2022/12/17 18:59:46;;;;;;;13.15;9.32;;;;;;;;;;4992433;28;20046;-55
2022/12/17 19:02:14;;;;;;;15.38;10.40;;;;;;;;;;4992081;28;20533;-56
2022/12/17 19:04:41;;;;;;;17.88;10.45;;;;;;;;;;4992245;28;20408;-55
2022/12/17 19:07:09;;;;;;;24.65;14.90;;;;;;;;;;4992442;28;20099;-55
2022/12/17 19:09:39;;;;;;;21.52;13.90;;;;;;;;;;4991991;28;20149;-54
2022/12/17 19:12:07;;;;;;;25.73;16.20;;;;;;;;;;4992217;28;20100;-55
2022/12/17 19:14:35;;;;;;;24.48;14.50;;;;;;;;;;4972822;28;20061;-55
2022/12/17 19:17:04;;;;;;;24.92;14.88;;;;;;;;;;4979010;28;20046;-55
2022/12/17 19:19:33;;;;;;;23.00;14.65;;;;;;;;;;4992136;28;20430;-54
2022/12/17 19:22:00;;;;;;;24.40;14.55;;;;;;;;;;4990104;28;20046;-55
2022/12/17 19:24:28;;;;;;;23.00;14.23;;;;;;;;;;4971569;28;20043;-51
2022/12/17 19:26:56;;;;;;;22.20;13.75;;;;;;;;;;4972269;28;20413;-54
2022/12/17 19:29:23;;;;;;;20.67;13.40;;;;;;;;;;4984672;28;20095;-51
2022/12/17 19:31:51;;;;;;;16.92;11.50;;;;;;;;;;4991847;28;20041;-54
2022/12/17 19:34:19;;;;;;;17.05;10.93;;;;;;;;;;4991697;28;20057;-50
2022/12/17 19:36:47;;;;;;;15.65;10.13;;;;;;;;;;4991943;28;20042;-49
2022/12/17 19:39:15;;;;;;;14.02;9.60;;;;;;;;;;4990231;28;20069;-50
2022/12/17 19:41:43;;;;;;;14.48;9.85;;;;;;;;;;4972355;28;20042;-54
2022/12/17 19:44:14;;;;;;;14.88;9.70;;;;;;;;;;4972151;28;20467;-54
2022/12/17 19:46:42;;;;;;;14.52;9.68;;;;;;;;;;4972107;28;20046;-54
2022/12/17 19:49:10;;;;;;;14.13;9.10;;;;;;;;;;4983683;28;20434;-54
2022/12/17 19:51:41;;;;;;;14.18;9.30;;;;;;;;;;4991851;28;20322;-53
2022/12/17 19:54:11;;;;;;;13.95;9.52;;;;;;;;;;4991809;28;20096;-54
2022/12/17 19:56:38;;;;;;;14.40;10.05;;;;;;;;;;4991593;28;20088;-54
2022/12/17 19:59:06;;;;;;;15.77;10.35;;;;;;;;;;4992016;28;20396;-52
2022/12/17 20:01:35;;;;;;;17.80;10.38;;;;;;;;;;4990512;28;20046;-56
2022/12/17 20:04:04;;;;;;;15.15;10.27;;;;;;;;;;5005115;28;20629;-49
2022/12/17 20:06:32;;;;;;;18.23;10.27;;;;;;;;;;4970885;28;20088;-53
2022/12/17 20:09:01;;;;;;;17.15;10.65;;;;;;;;;;4971895;28;20038;-54
2022/12/17 20:11:31;;;;;;;15.98;10.90;;;;;;;;;;4971789;28;20062;-52
2022/12/17 20:14:08;;;;;;;17.25;10.38;;;;;;;;;;4972120;28;20046;-55
2022/12/17 20:16:37;;;;;;;19.08;11.32;;;;;;;;;;4970671;28;20031;-54
2022/12/17 20:19:07;;;;;;;17.10;11.13;;;;;;;;;;4971929;28;20070;-54
2022/12/17 20:21:34;;;;;;;18.13;11.60;;;;;;;;;;4972096;28;20588;-55
2022/12/17 20:24:02;;;;;;;15.73;10.90;;;;;;;;;;4971789;28;20046;-55
2022/12/17 20:26:29;;;;;;;19.42;11.25;;;;;;;;;;4971364;28;20074;-55
2022/12/17 20:28:58;;;;;;;16.70;11.43;;;;;;;;;;4971658;28;20043;-52
2022/12/17 20:31:28;;;;;;;17.90;11.40;;;;;;;;;;4971661;28;20377;-52
2022/12/17 20:33:57;;;;;;;18.73;11.57;;;;;;;;;;4971018;28;20031;-53
2022/12/17 20:36:27;;;;;;;18.63;10.95;;;;;;;;;;4970519;28;20047;-54
2022/12/17 20:38:54;;;;;;;19.98;11.95;;;;;;;;;;4971989;28;20050;-51
2022/12/17 20:41:23;;;;;;;18.85;11.60;;;;;;;;;;4971836;28;20039;-54
2022/12/17 20:43:51;;;;;;;21.08;12.75;;;;;;;;;;4971694;28;20042;-54
2022/12/17 20:46:19;;;;;;;20.45;12.18;;;;;;;;;;4971783;28;20067;-53
2022/12/17 20:48:47;;;;;;;22.10;13.50;;;;;;;;;;4971725;28;20093;-49
2022/12/17 20:51:16;;;;;;;20.95;13.57;;;;;;;;;;4971853;28;20047;-49
2022/12/17 20:53:44;;;;;;;23.77;13.52;;;;;;;;;;4971566;28;20042;-51
2022/12/17 20:56:13;;;;;;;20.20;12.55;;;;;;;;;;4970670;28;20096;-50
2022/12/17 20:58:41;;;;;;;21.25;13.75;;;;;;;;;;4971039;28;20051;-48
2022/12/17 21:01:13;;;;;;;22.77;13.70;;;;;;;;;;4971647;28;20039;-53
2022/12/17 21:03:41;;;;;;;21.15;12.43;;;;;;;;;;4971683;28;20109;-53
2022/12/17 21:06:17;;;;;;;20.40;12.75;;;;;;;;;;4971734;28;20045;-52
2022/12/17 21:08:47;;;;;;;23.00;13.63;;;;;;;;;;4971479;28;20046;-54
2022/12/17 21:11:18;;;;;;;25.20;14.70;;;;;;;;;;4971382;28;20166;-54
2022/12/17 21:13:46;;;;;;;23.92;15.20;;;;;;;;;;4971384;28;20051;-54
2022/12/17 21:16:14;;;;;;;26.48;15.45;;;;;;;;;;4971382;28;20477;-53
2022/12/17 21:18:42;;;;;;;27.88;16.33;;;;;;;;;;4971336;28;20535;-51
2022/12/17 21:21:11;;;;;;;30.33;17.58;;;;;;;;;;4971279;28;20100;-54
2022/12/17 21:23:39;;;;;;;29.05;16.48;;;;;;;;;;4971171;28;20445;-52
2022/12/17 21:26:08;;;;;;;33.35;18.48;;;;;;;;;;4971197;28;20126;-54
2022/12/17 21:28:37;;;;;;;29.17;17.67;;;;;;;;;;4969754;28;20435;-54
2022/12/17 21:31:06;;;;;;;31.27;16.70;;;;;;;;;;4971333;28;20484;-53
2022/12/17 21:33:33;;;;;;;30.50;17.98;;;;;;;;;;4971359;28;20047;-54
2022/12/17 21:36:02;;;;;;;31.20;17.02;;;;;;;;;;4971243;28;20046;-54
2022/12/17 21:38:34;;;;;;;32.22;17.40;;;;;;;;;;4971057;28;20126;-54
2022/12/17 21:41:10;;;;;;;30.60;17.42;;;;;;;;;;4971042;28;20057;-53
2022/12/17 21:43:38;;;;;;;32.10;18.50;;;;;;;;;;4971239;28;20039;-53
2022/12/17 21:46:07;;;;;;;30.92;17.45;;;;;;;;;;4970961;28;20122;-54
2022/12/17 21:48:36;;;;;;;29.95;16.75;;;;;;;;;;4970991;28;20193;-49
2022/12/17 21:51:09;;;;;;;30.70;17.42;;;;;;;;;;4971054;28;20408;-53
2022/12/17 21:53:40;;;;;;;31.83;17.35;;;;;;;;;;4970840;28;20047;-50
2022/12/17 21:56:10;;;;;;;30.35;17.55;;;;;;;;;;4970818;28;20046;-54
2022/12/17 21:58:38;;;;;;;32.22;18.23;;;;;;;;;;4970590;28;20600;-51
2022/12/17 22:01:09;;;;;;;34.45;19.17;;;;;;;;;;4970624;28;20100;-51
2022/12/17 22:03:49;;;;;;;29.85;17.83;;;;;;;;;;4970789;28;20108;-52
2022/12/17 22:06:21;;;;;;;29.25;18.10;;;;;;;;;;4970529;28;20051;-55
2022/12/17 22:08:50;;;;;;;33.25;18.98;;;;;;;;;;4970496;28;20078;-52
2022/12/17 22:11:24;;;;;;;30.02;17.70;;;;;;;;;;4970783;28;20043;-50
2022/12/17 22:14:01;;;;;;;32.83;18.60;;;;;;;;;;4970574;28;20046;-52
2022/12/17 22:16:46;;;;;;;32.17;18.27;;;;;;;;;;4970655;28;20043;-53
2022/12/17 22:19:15;;;;;;;34.00;18.75;;;;;;;;;;4970695;28;20047;-54
2022/12/17 22:21:44;;;;;;;34.15;18.90;;;;;;;;;;4970687;28;20576;-50
2022/12/17 22:24:12;;;;;;;33.50;18.77;;;;;;;;;;4971397;28;20047;-55
2022/12/17 22:26:40;;;;;;;34.33;19.52;;;;;;;;;;4973934;28;20089;-52
2022/12/17 22:29:07;;;;;;;32.40;18.77;;;;;;;;;;4974005;28;20043;-53
2022/12/17 22:34:22;;;;;;;30.80;18.65;;;;;;;;;;4974034;28;20144;-53
2022/12/17 22:37:09;;;;;;;36.45;19.52;;;;;;;;;;4973881;28;20123;-52
2022/12/17 22:39:56;;;;;;;34.88;18.40;;;;;;;;;;4972761;28;20059;-51
2022/12/17 22:45:50;;;;;;;33.85;18.67;;;;;;;;;;4973711;28;20042;-48
2022/12/17 22:48:20;;;;;;;38.72;19.80;;;;;;;;;;4973797;28;20396;-52
2022/12/17 22:50:48;;;;;;;35.33;19.30;;;;;;;;;;4973662;28;20051;-54
2022/12/17 22:53:28;;;;;;;37.75;21.40;;;;;;;;;;4973710;28;20062;-53
2022/12/17 22:56:03;;;;;;;37.97;20.10;;;;;;;;;;4973571;28;20047;-54
2022/12/17 22:58:46;;;;;;;36.20;18.65;;;;;;;;;;4973603;28;20122;-53
2022/12/17 23:01:13;;;;;;;37.83;20.88;;;;;;;;;;4973214;28;20120;-54
2022/12/17 23:03:49;;;;;;;41.92;20.10;;;;;;;;;;4973557;28;20081;-55
2022/12/17 23:06:19;;;;;;;39.75;20.90;;;;;;;;;;4973412;28;20046;-55
2022/12/17 23:08:47;;;;;;;34.72;19.70;;;;;;;;;;4973375;28;20085;-54
2022/12/17 23:11:18;;;;;;;37.65;20.77;;;;;;;;;;4973381;28;20108;-54
2022/12/17 23:13:46;;;;;;;38.05;19.20;;;;;;;;;;4973366;28;20050;-54
2022/12/17 23:16:14;;;;;;;37.75;20.40;;;;;;;;;;4973482;28;20554;-55
2022/12/17 23:18:42;;;;;;;40.85;20.75;;;;;;;;;;4973299;28;20400;-54
2022/12/17 23:21:14;;;;;;;38.30;20.33;;;;;;;;;;4973381;28;20043;-48
2022/12/17 23:23:42;;;;;;;38.83;21.15;;;;;;;;;;4973287;28;20047;-48
2022/12/17 23:26:14;;;;;;;41.95;21.92;;;;;;;;;;4973294;28;20489;-54
2022/12/17 23:28:42;;;;;;;36.83;20.83;;;;;;;;;;4973040;28;20072;-54
2022/12/17 23:31:11;;;;;;;38.42;20.77;;;;;;;;;;4973233;28;20042;-55
2022/12/17 23:33:39;;;;;;;43.50;21.40;;;;;;;;;;4972047;28;20071;-55
2022/12/17 23:36:12;;;;;;;39.28;22.15;;;;;;;;;;4971803;28;20562;-55
2022/12/17 23:38:40;;;;;;;40.80;21.90;;;;;;;;;;4973050;28;20066;-56
2022/12/17 23:41:08;;;;;;;43.03;22.60;;;;;;;;;;4972882;28;20039;-53
2022/12/17 23:43:36;;;;;;;40.17;21.27;;;;;;;;;;4971708;28;20043;-55
2022/12/17 23:46:04;;;;;;;42.47;22.60;;;;;;;;;;4972716;28;20053;-54
2022/12/17 23:48:33;;;;;;;41.22;22.00;;;;;;;;;;4972741;28;20603;-55
2022/12/17 23:51:01;;;;;;;41.30;21.33;;;;;;;;;;4973073;28;20070;-54
2022/12/17 23:53:29;;;;;;;40.22;21.50;;;;;;;;;;4972722;28;20039;-54
2022/12/17 23:56:04;;;;;;;39.97;22.27;;;;;;;;;;4972513;28;20496;-54
2022/12/17 23:58:32;;;;;;;42.75;22.30;;;;;;;;;;4972804;28;20049;-51
